createdAt,value
2018-12-31T00:00:24.242Z,16.27
2018-12-31T00:01:24.231Z,16.22
2018-12-31T00:02:24.219Z,16.18
2018-12-31T00:03:24.209Z,16.18
2018-12-31T00:04:24.205Z,16.31
2018-12-31T00:05:24.187Z,16.22
2018-12-31T00:06:24.174Z,16.31
2018-12-31T00:07:24.166Z,16.22
2018-12-31T00:08:24.153Z,16.15
2018-12-31T00:09:24.140Z,16.25
2018-12-31T00:10:24.137Z,16.23
2018-12-31T00:11:24.120Z,16.15
2018-12-31T00:12:24.107Z,16.20
2018-12-31T00:13:24.095Z,16.20
2018-12-31T00:14:24.084Z,16.23
2018-12-31T00:15:24.073Z,16.18
2018-12-31T00:16:24.069Z,16.18
2018-12-31T00:17:24.051Z,16.18
2018-12-31T00:18:24.038Z,16.18
2018-12-31T00:19:24.027Z,16.18
2018-12-31T00:20:24.016Z,16.22
2018-12-31T00:21:24.004Z,16.22
2018-12-31T00:22:24.012Z,16.18
2018-12-31T00:23:23.982Z,16.22
2018-12-31T00:24:23.969Z,16.16
2018-12-31T00:25:23.959Z,16.22
2018-12-31T00:26:23.950Z,16.22
2018-12-31T00:27:23.937Z,16.18
2018-12-31T00:28:23.933Z,16.16
2018-12-31T00:29:23.913Z,16.23
2018-12-31T00:30:23.902Z,16.22
2018-12-31T00:31:23.891Z,16.22
2018-12-31T00:32:23.880Z,16.18
2018-12-31T00:33:23.869Z,16.22
2018-12-31T00:34:23.869Z,16.14
2018-12-31T00:35:23.844Z,16.14
2018-12-31T00:36:23.834Z,16.15
2018-12-31T00:37:23.822Z,16.20
2018-12-31T00:38:23.814Z,16.22
2018-12-31T00:39:23.799Z,16.18
2018-12-31T00:40:23.795Z,16.26
2018-12-31T00:41:23.781Z,16.22
2018-12-31T00:42:23.764Z,16.18
2018-12-31T00:43:23.753Z,16.18
2018-12-31T00:44:23.742Z,16.16
2018-12-31T00:45:23.733Z,16.20
2018-12-31T00:46:23.726Z,16.15
2018-12-31T00:47:23.717Z,16.18
2018-12-31T00:48:23.696Z,16.16
2018-12-31T00:49:23.688Z,16.22
2018-12-31T00:50:23.674Z,16.27
2018-12-31T00:51:23.664Z,16.18
2018-12-31T00:52:23.943Z,16.23
2018-12-31T00:53:23.640Z,16.25
2018-12-31T00:54:23.629Z,16.16
2018-12-31T00:55:23.617Z,16.14
2018-12-31T00:56:23.607Z,16.23
2018-12-31T00:57:23.595Z,16.18
2018-12-31T00:58:23.589Z,16.16
2018-12-31T00:59:23.571Z,16.22
2018-12-31T01:00:23.560Z,16.14
2018-12-31T01:01:23.549Z,16.23
2018-12-31T01:02:23.544Z,16.20
2018-12-31T01:03:23.526Z,16.20
2018-12-31T01:04:23.798Z,16.14
2018-12-31T01:05:23.503Z,16.09
2018-12-31T01:06:23.495Z,16.23
2018-12-31T01:07:23.482Z,16.25
2018-12-31T01:08:23.471Z,16.22
2018-12-31T01:09:23.459Z,16.14
2018-12-31T01:10:23.741Z,16.25
2018-12-31T01:11:23.436Z,16.14
2018-12-31T01:12:23.443Z,16.23
2018-12-31T01:13:23.412Z,16.18
2018-12-31T01:14:23.407Z,16.18
2018-12-31T01:15:23.391Z,16.16
2018-12-31T01:16:23.639Z,16.14
2018-12-31T01:17:23.367Z,16.16
2018-12-31T01:18:23.356Z,16.20
2018-12-31T01:19:23.345Z,16.18
2018-12-31T01:20:23.337Z,16.11
2018-12-31T01:21:23.396Z,16.14
2018-12-31T01:22:23.320Z,16.22
2018-12-31T01:23:23.301Z,16.22
2018-12-31T01:24:23.289Z,16.18
2018-12-31T01:25:23.276Z,16.23
2018-12-31T01:26:23.266Z,16.16
2018-12-31T01:27:23.253Z,16.12
2018-12-31T01:28:23.562Z,16.22
2018-12-31T01:29:23.232Z,16.18
2018-12-31T01:30:23.220Z,16.14
2018-12-31T01:31:23.209Z,16.16
2018-12-31T01:32:23.233Z,16.23
2018-12-31T01:33:23.187Z,16.20
2018-12-31T01:34:23.183Z,16.15
2018-12-31T01:35:23.164Z,16.23
2018-12-31T01:36:23.151Z,16.15
2018-12-31T01:37:23.143Z,16.16
2018-12-31T01:38:23.128Z,16.16
2018-12-31T01:39:23.118Z,16.20
2018-12-31T01:40:23.127Z,16.20
2018-12-31T01:41:23.096Z,16.20
2018-12-31T01:42:23.084Z,16.16
2018-12-31T01:43:23.072Z,16.18
2018-12-31T01:44:23.062Z,16.22
2018-12-31T01:45:23.049Z,16.16
2018-12-31T01:46:23.046Z,16.20
2018-12-31T01:47:23.028Z,16.14
2018-12-31T01:48:23.016Z,16.22
2018-12-31T01:49:23.005Z,16.22
2018-12-31T01:50:22.992Z,16.18
2018-12-31T01:51:22.980Z,16.22
2018-12-31T01:52:22.988Z,16.18
2018-12-31T01:53:22.969Z,16.16
2018-12-31T01:54:22.950Z,16.18
2018-12-31T01:55:22.936Z,16.16
2018-12-31T01:56:22.924Z,16.14
2018-12-31T01:57:22.913Z,16.18
2018-12-31T01:58:23.188Z,16.15
2018-12-31T01:59:22.890Z,16.14
2018-12-31T02:00:22.879Z,16.15
2018-12-31T02:01:22.868Z,16.18
2018-12-31T02:02:22.857Z,16.16
2018-12-31T02:03:22.845Z,16.23
2018-12-31T02:04:22.839Z,16.20
2018-12-31T02:05:22.862Z,16.16
2018-12-31T02:06:22.811Z,16.16
2018-12-31T02:07:22.799Z,16.18
2018-12-31T02:08:22.788Z,16.15
2018-12-31T02:09:22.777Z,16.16
2018-12-31T02:10:22.773Z,16.18
2018-12-31T02:11:22.754Z,16.20
2018-12-31T02:12:22.743Z,16.14
2018-12-31T02:13:22.731Z,16.15
2018-12-31T02:14:22.720Z,16.16
2018-12-31T02:15:22.709Z,16.25
2018-12-31T02:16:22.705Z,16.18
2018-12-31T02:17:22.769Z,16.18
2018-12-31T02:18:22.723Z,16.16
2018-12-31T02:19:22.664Z,16.15
2018-12-31T02:20:22.653Z,16.15
2018-12-31T02:21:22.640Z,16.16
2018-12-31T02:22:22.650Z,16.18
2018-12-31T02:23:22.617Z,16.16
2018-12-31T02:24:22.608Z,16.16
2018-12-31T02:25:22.594Z,16.16
2018-12-31T02:26:22.583Z,16.16
2018-12-31T02:27:22.571Z,16.18
2018-12-31T02:28:22.845Z,16.20
2018-12-31T02:29:22.548Z,16.15
2018-12-31T02:30:22.541Z,16.23
2018-12-31T02:31:22.526Z,16.15
2018-12-31T02:32:22.515Z,16.16
2018-12-31T02:33:22.504Z,16.18
2018-12-31T02:34:22.772Z,16.18
2018-12-31T02:35:22.496Z,16.15
2018-12-31T02:36:22.471Z,16.18
2018-12-31T02:37:22.459Z,16.22
2018-12-31T02:38:22.446Z,16.16
2018-12-31T02:39:22.435Z,16.15
2018-12-31T02:40:22.719Z,16.15
2018-12-31T02:41:22.416Z,16.11
2018-12-31T02:42:22.400Z,16.14
2018-12-31T02:43:22.394Z,16.12
2018-12-31T02:44:22.378Z,16.14
2018-12-31T02:45:22.367Z,16.11
2018-12-31T02:46:22.364Z,16.16
2018-12-31T02:47:22.343Z,16.18
2018-12-31T02:48:22.332Z,16.14
2018-12-31T02:49:22.321Z,16.09
2018-12-31T02:50:22.309Z,16.11
2018-12-31T02:51:22.297Z,16.04
2018-12-31T02:52:22.295Z,16.15
2018-12-31T02:53:22.275Z,16.18
2018-12-31T02:54:22.265Z,16.16
2018-12-31T02:55:22.255Z,16.14
2018-12-31T02:56:22.244Z,16.15
2018-12-31T02:57:22.230Z,16.20
2018-12-31T02:58:22.241Z,16.18
2018-12-31T02:59:22.209Z,16.16
2018-12-31T03:00:22.197Z,16.14
2018-12-31T03:01:22.185Z,16.11
2018-12-31T03:02:22.173Z,16.12
2018-12-31T03:03:22.167Z,16.12
2018-12-31T03:04:22.160Z,16.12
2018-12-31T03:05:22.145Z,16.16
2018-12-31T03:06:22.128Z,16.18
2018-12-31T03:07:22.117Z,16.14
2018-12-31T03:08:22.106Z,16.18
2018-12-31T03:09:22.095Z,16.07
2018-12-31T03:10:22.091Z,16.20
2018-12-31T03:11:22.071Z,16.12
2018-12-31T03:12:22.062Z,16.14
2018-12-31T03:13:22.047Z,16.20
2018-12-31T03:14:22.036Z,16.14
2018-12-31T03:15:22.026Z,16.12
2018-12-31T03:16:22.301Z,16.14
2018-12-31T03:17:22.057Z,16.14
2018-12-31T03:18:21.992Z,16.07
2018-12-31T03:19:25.886Z,16.15
2018-12-31T03:20:21.973Z,16.16
2018-12-31T03:21:21.957Z,16.15
2018-12-31T03:22:22.232Z,16.18
2018-12-31T03:23:21.938Z,16.16
2018-12-31T03:24:21.929Z,16.12
2018-12-31T03:25:21.918Z,16.14
2018-12-31T03:26:21.910Z,16.15
2018-12-31T03:27:21.891Z,16.15
2018-12-31T03:28:22.170Z,16.14
2018-12-31T03:29:21.867Z,16.12
2018-12-31T03:30:21.868Z,16.12
2018-12-31T03:31:21.846Z,16.12
2018-12-31T03:32:21.835Z,16.14
2018-12-31T03:33:21.825Z,16.12
2018-12-31T03:34:22.094Z,16.15
2018-12-31T03:35:21.799Z,16.14
2018-12-31T03:36:21.788Z,16.18
2018-12-31T03:37:21.776Z,16.18
2018-12-31T03:38:21.765Z,16.16
2018-12-31T03:39:21.752Z,16.16
2018-12-31T03:40:22.020Z,16.20
2018-12-31T03:41:21.732Z,16.14
2018-12-31T03:42:21.719Z,16.15
2018-12-31T03:43:21.710Z,16.15
2018-12-31T03:44:21.700Z,16.14
2018-12-31T03:45:21.766Z,16.16
2018-12-31T03:46:21.961Z,16.16
2018-12-31T03:47:21.664Z,16.15
2018-12-31T03:48:21.651Z,16.16
2018-12-31T03:49:21.639Z,16.14
2018-12-31T03:50:21.628Z,16.20
2018-12-31T03:51:21.619Z,16.20
2018-12-31T03:52:21.614Z,16.18
2018-12-31T03:53:21.595Z,16.12
2018-12-31T03:54:21.583Z,16.16
2018-12-31T03:55:21.571Z,16.14
2018-12-31T03:56:21.559Z,16.22
2018-12-31T03:57:21.549Z,16.14
2018-12-31T03:58:21.546Z,16.14
2018-12-31T03:59:21.529Z,16.09
2018-12-31T04:00:21.523Z,16.15
2018-12-31T04:01:21.504Z,16.16
2018-12-31T04:02:21.494Z,16.12
2018-12-31T04:03:21.482Z,16.12
2018-12-31T04:04:21.476Z,16.14
2018-12-31T04:05:21.459Z,16.18
2018-12-31T04:06:21.447Z,16.14
2018-12-31T04:07:21.436Z,16.16
2018-12-31T04:08:21.426Z,16.20
2018-12-31T04:09:21.412Z,16.16
2018-12-31T04:10:21.411Z,16.16
2018-12-31T04:11:21.392Z,16.16
2018-12-31T04:12:21.377Z,16.16
2018-12-31T04:13:21.369Z,16.09
2018-12-31T04:14:21.356Z,16.18
2018-12-31T04:15:21.346Z,16.16
2018-12-31T04:16:21.343Z,16.18
2018-12-31T04:17:21.359Z,16.11
2018-12-31T04:18:21.312Z,16.22
2018-12-31T04:19:21.300Z,16.16
2018-12-31T04:20:21.288Z,16.18
2018-12-31T04:21:21.277Z,16.11
2018-12-31T04:22:21.570Z,16.15
2018-12-31T04:23:21.253Z,16.16
2018-12-31T04:24:21.242Z,16.15
2018-12-31T04:25:21.231Z,16.22
2018-12-31T04:26:21.221Z,16.20
2018-12-31T04:27:21.208Z,16.14
2018-12-31T04:28:21.205Z,16.15
2018-12-31T04:29:21.185Z,16.15
2018-12-31T04:30:21.176Z,16.14
2018-12-31T04:31:21.161Z,16.14
2018-12-31T04:32:21.152Z,16.16
2018-12-31T04:33:21.140Z,16.16
2018-12-31T04:34:21.137Z,16.12
2018-12-31T04:35:21.115Z,16.22
2018-12-31T04:36:21.107Z,16.12
2018-12-31T04:37:21.094Z,16.20
2018-12-31T04:38:21.081Z,16.14
2018-12-31T04:39:21.072Z,16.07
2018-12-31T04:40:21.068Z,16.16
2018-12-31T04:41:21.048Z,16.18
2018-12-31T04:42:21.037Z,16.15
2018-12-31T04:43:21.041Z,16.16
2018-12-31T04:44:21.016Z,16.16
2018-12-31T04:45:21.007Z,16.12
2018-12-31T04:46:20.998Z,16.22
2018-12-31T04:47:20.981Z,16.18
2018-12-31T04:48:20.978Z,16.18
2018-12-31T04:49:20.959Z,16.18
2018-12-31T04:50:20.946Z,16.16
2018-12-31T04:51:20.934Z,16.18
2018-12-31T04:52:20.931Z,16.16
2018-12-31T04:53:20.911Z,16.15
2018-12-31T04:54:20.903Z,16.11
2018-12-31T04:55:20.890Z,16.15
2018-12-31T04:56:20.879Z,16.14
2018-12-31T04:57:20.865Z,16.15
2018-12-31T04:58:23.215Z,16.16
2018-12-31T04:59:20.844Z,16.15
2018-12-31T05:00:20.832Z,16.09
2018-12-31T05:01:20.820Z,16.15
2018-12-31T05:02:20.808Z,16.14
2018-12-31T05:03:20.798Z,16.07
2018-12-31T05:04:22.089Z,16.20
2018-12-31T05:05:20.775Z,16.22
2018-12-31T05:06:20.761Z,16.11
2018-12-31T05:07:20.751Z,16.18
2018-12-31T05:08:20.740Z,16.16
2018-12-31T05:09:20.728Z,16.14
2018-12-31T05:10:21.008Z,16.12
2018-12-31T05:11:20.705Z,16.12
2018-12-31T05:12:20.693Z,16.14
2018-12-31T05:13:20.680Z,16.12
2018-12-31T05:14:20.669Z,16.11
2018-12-31T05:15:20.659Z,16.15
2018-12-31T05:16:20.963Z,16.11
2018-12-31T05:17:20.636Z,16.07
2018-12-31T05:18:20.624Z,16.12
2018-12-31T05:19:20.637Z,16.09
2018-12-31T05:20:20.600Z,16.06
2018-12-31T05:21:20.589Z,16.18
2018-12-31T05:22:20.871Z,16.15
2018-12-31T05:23:20.565Z,16.15
2018-12-31T05:24:20.555Z,16.18
2018-12-31T05:25:20.543Z,16.15
2018-12-31T05:26:20.531Z,16.09
2018-12-31T05:27:20.520Z,16.16
2018-12-31T05:28:20.800Z,16.15
2018-12-31T05:29:20.498Z,16.15
2018-12-31T05:30:20.488Z,16.14
2018-12-31T05:31:20.473Z,16.15
2018-12-31T05:32:20.464Z,16.15
2018-12-31T05:33:20.456Z,16.18
2018-12-31T05:34:20.702Z,16.14
2018-12-31T05:35:20.428Z,16.15
2018-12-31T05:36:20.417Z,16.12
2018-12-31T05:37:20.409Z,16.11
2018-12-31T05:38:20.396Z,16.15
2018-12-31T05:39:20.382Z,16.14
2018-12-31T05:40:20.635Z,16.07
2018-12-31T05:41:20.361Z,16.09
2018-12-31T05:42:20.348Z,16.15
2018-12-31T05:43:20.342Z,16.16
2018-12-31T05:44:20.404Z,16.09
2018-12-31T05:45:20.313Z,16.06
2018-12-31T05:46:20.310Z,16.15
2018-12-31T05:47:20.290Z,16.09
2018-12-31T05:48:20.279Z,16.15
2018-12-31T05:49:20.270Z,16.12
2018-12-31T05:50:20.259Z,16.11
2018-12-31T05:51:20.244Z,16.16
2018-12-31T05:52:20.240Z,16.12
2018-12-31T05:53:20.224Z,16.12
2018-12-31T05:54:20.209Z,16.09
2018-12-31T05:55:20.198Z,16.12
2018-12-31T05:56:20.188Z,16.12
2018-12-31T05:57:20.179Z,16.12
2018-12-31T05:58:20.171Z,16.11
2018-12-31T05:59:20.153Z,16.14
2018-12-31T06:00:20.141Z,16.12
2018-12-31T06:01:20.130Z,16.15
2018-12-31T06:02:20.120Z,16.12
2018-12-31T06:03:20.107Z,16.18
2018-12-31T06:04:20.110Z,16.11
2018-12-31T06:05:20.085Z,16.14
2018-12-31T06:06:20.072Z,16.22
2018-12-31T06:07:20.062Z,16.12
2018-12-31T06:08:20.050Z,16.14
2018-12-31T06:09:20.038Z,16.16
2018-12-31T06:10:20.033Z,16.09
2018-12-31T06:11:20.016Z,16.09
2018-12-31T06:12:20.005Z,16.09
2018-12-31T06:13:19.993Z,16.07
2018-12-31T06:14:19.981Z,16.16
2018-12-31T06:15:19.970Z,16.15
2018-12-31T06:16:19.966Z,16.12
2018-12-31T06:17:19.948Z,16.11
2018-12-31T06:18:19.936Z,16.11
2018-12-31T06:19:19.923Z,16.12
2018-12-31T06:20:19.912Z,16.11
2018-12-31T06:21:19.900Z,16.09
2018-12-31T06:22:19.895Z,16.23
2018-12-31T06:23:19.878Z,16.12
2018-12-31T06:24:19.866Z,16.12
2018-12-31T06:25:19.862Z,16.12
2018-12-31T06:26:19.846Z,16.12
2018-12-31T06:27:19.835Z,16.11
2018-12-31T06:28:19.828Z,16.14
2018-12-31T06:29:19.810Z,16.11
2018-12-31T06:30:19.797Z,16.14
2018-12-31T06:31:19.787Z,16.14
2018-12-31T06:32:19.794Z,16.11
2018-12-31T06:33:19.763Z,16.09
2018-12-31T06:34:19.759Z,16.11
2018-12-31T06:35:19.740Z,16.11
2018-12-31T06:36:19.728Z,16.11
2018-12-31T06:37:19.719Z,16.11
2018-12-31T06:38:20.382Z,16.18
2018-12-31T06:39:19.740Z,16.11
2018-12-31T06:40:19.689Z,16.11
2018-12-31T06:41:19.672Z,16.09
2018-12-31T06:42:19.660Z,16.06
2018-12-31T06:43:19.648Z,16.11
2018-12-31T06:44:19.637Z,16.14
2018-12-31T06:45:19.625Z,16.12
2018-12-31T06:46:19.902Z,16.14
2018-12-31T06:47:19.603Z,16.11
2018-12-31T06:48:19.592Z,16.18
2018-12-31T06:49:19.579Z,16.09
2018-12-31T06:50:19.568Z,16.07
2018-12-31T06:51:19.557Z,16.06
2018-12-31T06:52:19.837Z,16.09
2018-12-31T06:53:19.534Z,16.14
2018-12-31T06:54:19.522Z,16.14
2018-12-31T06:55:19.523Z,16.14
2018-12-31T06:56:19.500Z,16.11
2018-12-31T06:57:19.489Z,16.14
2018-12-31T06:58:19.879Z,16.09
2018-12-31T06:59:19.466Z,16.07
2018-12-31T07:00:19.455Z,16.14
2018-12-31T07:01:19.444Z,16.06
2018-12-31T07:02:19.433Z,16.06
2018-12-31T07:03:19.421Z,16.07
2018-12-31T07:04:19.704Z,16.06
2018-12-31T07:05:19.398Z,16.07
2018-12-31T07:06:19.387Z,16.14
2018-12-31T07:07:19.375Z,16.11
2018-12-31T07:08:19.364Z,16.11
2018-12-31T07:09:19.353Z,16.14
2018-12-31T07:10:19.349Z,16.07
2018-12-31T07:11:19.329Z,16.09
2018-12-31T07:12:19.319Z,16.06
2018-12-31T07:13:19.307Z,16.06
2018-12-31T07:14:19.296Z,16.07
2018-12-31T07:15:19.283Z,16.11
2018-12-31T07:16:19.280Z,16.14
2018-12-31T07:17:19.261Z,16.15
2018-12-31T07:18:19.255Z,16.06
2018-12-31T07:19:19.240Z,16.11
2018-12-31T07:20:19.227Z,16.09
2018-12-31T07:21:19.215Z,16.07
2018-12-31T07:22:19.215Z,16.15
2018-12-31T07:23:19.191Z,16.07
2018-12-31T07:24:19.188Z,16.09
2018-12-31T07:25:19.170Z,16.12
2018-12-31T07:26:19.157Z,16.11
2018-12-31T07:27:19.147Z,16.06
2018-12-31T07:28:19.142Z,16.11
2018-12-31T07:29:19.126Z,16.07
2018-12-31T07:30:19.112Z,16.11
2018-12-31T07:31:19.100Z,16.09
2018-12-31T07:32:19.091Z,16.11
2018-12-31T07:33:19.077Z,16.06
2018-12-31T07:34:19.074Z,16.09
2018-12-31T07:35:19.054Z,16.15
2018-12-31T07:36:19.043Z,16.07
2018-12-31T07:37:19.030Z,16.12
2018-12-31T07:38:19.020Z,16.09
2018-12-31T07:39:19.007Z,16.11
2018-12-31T07:40:19.005Z,16.15
2018-12-31T07:41:18.987Z,16.11
2018-12-31T07:42:18.975Z,16.15
2018-12-31T07:43:18.965Z,16.09
2018-12-31T07:44:18.950Z,16.09
2018-12-31T07:45:18.940Z,16.07
2018-12-31T07:46:18.935Z,16.06
2018-12-31T07:47:18.975Z,16.11
2018-12-31T07:48:18.903Z,16.11
2018-12-31T07:49:18.895Z,16.14
2018-12-31T07:50:18.880Z,16.15
2018-12-31T07:51:18.869Z,16.04
2018-12-31T07:52:18.866Z,16.06
2018-12-31T07:53:18.847Z,16.12
2018-12-31T07:54:18.837Z,16.06
2018-12-31T07:55:18.824Z,16.12
2018-12-31T07:56:18.813Z,16.09
2018-12-31T07:57:18.801Z,16.14
2018-12-31T07:58:18.796Z,16.11
2018-12-31T07:59:18.783Z,16.11
2018-12-31T08:00:18.768Z,16.11
2018-12-31T08:01:18.754Z,16.07
2018-12-31T08:02:18.744Z,16.09
2018-12-31T08:03:18.731Z,16.09
2018-12-31T08:04:19.011Z,16.11
2018-12-31T08:05:18.709Z,16.15
2018-12-31T08:06:18.699Z,16.11
2018-12-31T08:07:18.690Z,16.09
2018-12-31T08:08:18.680Z,16.11
2018-12-31T08:09:18.663Z,16.09
2018-12-31T08:10:18.976Z,16.09
2018-12-31T08:11:18.643Z,16.18
2018-12-31T08:12:18.631Z,16.14
2018-12-31T08:13:18.618Z,16.11
2018-12-31T08:14:18.607Z,16.15
2018-12-31T08:15:18.596Z,16.15
2018-12-31T08:16:18.605Z,16.09
2018-12-31T08:17:18.573Z,16.14
2018-12-31T08:18:18.563Z,16.14
2018-12-31T08:19:18.551Z,16.12
2018-12-31T08:20:18.538Z,16.15
2018-12-31T08:21:18.527Z,16.12
2018-12-31T08:22:18.538Z,16.16
2018-12-31T08:23:18.506Z,16.16
2018-12-31T08:24:18.493Z,16.07
2018-12-31T08:25:18.483Z,16.16
2018-12-31T08:26:18.470Z,16.06
2018-12-31T08:27:18.458Z,16.15
2018-12-31T08:28:18.776Z,16.12
2018-12-31T08:29:18.436Z,16.11
2018-12-31T08:30:18.937Z,16.15
2018-12-31T08:31:18.413Z,16.18
2018-12-31T08:32:18.401Z,16.12
2018-12-31T08:33:18.390Z,16.15
2018-12-31T08:34:18.386Z,16.15
2018-12-31T08:35:18.366Z,16.11
2018-12-31T08:36:18.357Z,16.16
2018-12-31T08:37:18.345Z,16.15
2018-12-31T08:38:18.335Z,16.16
2018-12-31T08:39:18.321Z,16.11
2018-12-31T08:40:18.316Z,16.15
2018-12-31T08:41:18.356Z,16.07
2018-12-31T08:42:18.286Z,16.15
2018-12-31T08:43:18.274Z,16.11
2018-12-31T08:44:18.266Z,16.16
2018-12-31T08:45:18.252Z,16.16
2018-12-31T08:46:18.248Z,16.12
2018-12-31T08:47:18.233Z,16.14
2018-12-31T08:48:18.218Z,16.15
2018-12-31T08:49:18.207Z,16.15
2018-12-31T08:50:18.195Z,16.14
2018-12-31T08:51:18.184Z,16.15
2018-12-31T08:52:18.189Z,16.16
2018-12-31T08:53:18.161Z,16.14
2018-12-31T08:54:18.150Z,16.12
2018-12-31T08:55:18.138Z,16.18
2018-12-31T08:56:18.129Z,16.12
2018-12-31T08:57:18.117Z,16.12
2018-12-31T08:58:18.114Z,16.18
2018-12-31T08:59:18.095Z,16.22
2018-12-31T09:00:18.082Z,16.14
2018-12-31T09:01:18.072Z,16.15
2018-12-31T09:02:18.059Z,16.15
2018-12-31T09:03:18.049Z,16.07
2018-12-31T09:04:18.043Z,16.22
2018-12-31T09:05:18.026Z,16.15
2018-12-31T09:06:18.066Z,16.16
2018-12-31T09:07:18.003Z,16.11
2018-12-31T09:08:17.991Z,16.16
2018-12-31T09:09:17.980Z,16.15
2018-12-31T09:10:18.239Z,16.16
2018-12-31T09:11:17.957Z,16.18
2018-12-31T09:12:17.945Z,16.16
2018-12-31T09:13:17.938Z,16.16
2018-12-31T09:14:17.923Z,16.18
2018-12-31T09:15:17.912Z,16.16
2018-12-31T09:16:18.170Z,16.14
2018-12-31T09:17:17.891Z,16.18
2018-12-31T09:18:17.877Z,16.20
2018-12-31T09:19:17.867Z,16.20
2018-12-31T09:20:17.854Z,16.18
2018-12-31T09:21:17.844Z,16.14
2018-12-31T09:22:17.843Z,16.18
2018-12-31T09:23:17.819Z,16.14
2018-12-31T09:24:17.810Z,16.18
2018-12-31T09:25:17.797Z,16.16
2018-12-31T09:26:17.787Z,16.22
2018-12-31T09:27:17.775Z,16.09
2018-12-31T09:28:17.769Z,16.18
2018-12-31T09:29:17.751Z,16.15
2018-12-31T09:30:17.740Z,16.18
2018-12-31T09:31:17.728Z,16.16
2018-12-31T09:32:17.799Z,16.18
2018-12-31T09:33:17.708Z,16.16
2018-12-31T09:34:17.972Z,16.16
2018-12-31T09:35:17.684Z,16.18
2018-12-31T09:36:17.672Z,16.27
2018-12-31T09:37:17.659Z,16.15
2018-12-31T09:38:17.649Z,16.16
2018-12-31T09:39:17.642Z,16.20
2018-12-31T09:40:17.640Z,16.27
2018-12-31T09:41:17.615Z,16.20
2018-12-31T09:42:17.602Z,16.18
2018-12-31T09:43:17.593Z,16.22
2018-12-31T09:44:17.581Z,16.30
2018-12-31T09:45:17.571Z,16.22
2018-12-31T09:46:17.568Z,16.22
2018-12-31T09:47:17.556Z,16.34
2018-12-31T09:48:17.536Z,16.34
2018-12-31T09:49:17.524Z,16.34
2018-12-31T09:50:17.513Z,16.22
2018-12-31T09:51:17.502Z,16.27
2018-12-31T09:52:17.500Z,16.26
2018-12-31T09:53:17.479Z,16.31
2018-12-31T09:54:17.467Z,16.26
2018-12-31T09:55:17.456Z,16.22
2018-12-31T09:56:17.479Z,16.30
2018-12-31T09:57:17.434Z,16.34
2018-12-31T09:58:17.432Z,16.26
2018-12-31T09:59:17.411Z,16.34
2018-12-31T10:00:17.406Z,16.23
2018-12-31T10:01:17.389Z,16.33
2018-12-31T10:02:17.377Z,16.20
2018-12-31T10:03:17.367Z,16.34
2018-12-31T10:04:17.378Z,16.26
2018-12-31T10:05:17.343Z,16.34
2018-12-31T10:06:17.332Z,16.16
2018-12-31T10:07:17.323Z,16.25
2018-12-31T10:08:17.310Z,16.34
2018-12-31T10:09:17.298Z,16.15
2018-12-31T10:10:17.307Z,16.37
2018-12-31T10:11:17.275Z,16.18
2018-12-31T10:12:17.264Z,16.34
2018-12-31T10:13:17.253Z,16.27
2018-12-31T10:14:17.244Z,16.23
2018-12-31T10:15:17.246Z,16.33
2018-12-31T10:16:17.510Z,16.33
2018-12-31T10:17:17.207Z,16.14
2018-12-31T10:18:17.195Z,16.15
2018-12-31T10:19:17.185Z,16.20
2018-12-31T10:20:17.173Z,16.26
2018-12-31T10:21:17.161Z,16.33
2018-12-31T10:22:17.172Z,16.35
2018-12-31T10:23:17.138Z,16.27
2018-12-31T10:24:17.128Z,16.25
2018-12-31T10:25:17.116Z,16.12
2018-12-31T10:26:17.105Z,16.27
2018-12-31T10:27:17.094Z,16.30
2018-12-31T10:28:17.371Z,16.27
2018-12-31T10:29:17.070Z,16.18
2018-12-31T10:30:17.059Z,16.23
2018-12-31T10:31:17.047Z,16.33
2018-12-31T10:32:17.037Z,16.31
2018-12-31T10:33:17.024Z,16.27
2018-12-31T10:34:17.318Z,16.30
2018-12-31T10:35:17.004Z,16.31
2018-12-31T10:36:16.990Z,16.35
2018-12-31T10:37:16.980Z,16.27
2018-12-31T10:38:16.968Z,16.33
2018-12-31T10:39:16.957Z,16.33
2018-12-31T10:40:16.953Z,16.26
2018-12-31T10:41:16.935Z,16.35
2018-12-31T10:42:16.927Z,16.26
2018-12-31T10:43:16.912Z,16.25
2018-12-31T10:44:16.906Z,16.31
2018-12-31T10:45:16.889Z,16.33
2018-12-31T10:46:16.884Z,16.31
2018-12-31T10:47:16.866Z,16.27
2018-12-31T10:48:16.857Z,16.26
2018-12-31T10:49:16.843Z,16.31
2018-12-31T10:50:16.831Z,16.38
2018-12-31T10:51:16.821Z,16.40
2018-12-31T10:52:16.821Z,16.41
2018-12-31T10:53:16.797Z,16.40
2018-12-31T10:54:16.786Z,16.38
2018-12-31T10:55:16.776Z,16.40
2018-12-31T10:56:16.763Z,16.40
2018-12-31T10:57:17.870Z,16.38
2018-12-31T10:58:16.746Z,16.34
2018-12-31T10:59:16.729Z,16.30
2018-12-31T11:00:16.717Z,16.35
2018-12-31T11:01:16.706Z,16.37
2018-12-31T11:02:16.695Z,16.37
2018-12-31T11:03:16.685Z,16.42
2018-12-31T11:04:16.692Z,16.34
2018-12-31T11:05:16.660Z,16.35
2018-12-31T11:06:16.649Z,16.38
2018-12-31T11:07:16.637Z,16.33
2018-12-31T11:08:16.627Z,16.34
2018-12-31T11:09:16.615Z,16.40
2018-12-31T11:10:16.617Z,16.38
2018-12-31T11:11:16.598Z,16.33
2018-12-31T11:12:17.430Z,16.41
2018-12-31T11:13:16.569Z,16.34
2018-12-31T11:14:16.562Z,16.37
2018-12-31T11:15:16.547Z,16.34
2018-12-31T11:16:16.818Z,16.45
2018-12-31T11:17:16.524Z,16.40
2018-12-31T11:18:16.513Z,16.41
2018-12-31T11:19:16.502Z,16.45
2018-12-31T11:20:16.490Z,16.55
2018-12-31T11:21:16.479Z,16.59
2018-12-31T11:22:16.743Z,16.52
2018-12-31T11:23:16.458Z,16.52
2018-12-31T11:24:16.446Z,16.50
2018-12-31T11:25:16.433Z,16.52
2018-12-31T11:26:16.423Z,16.55
2018-12-31T11:27:16.410Z,16.55
2018-12-31T11:28:16.420Z,16.53
2018-12-31T11:29:16.388Z,16.53
2018-12-31T11:30:16.377Z,16.56
2018-12-31T11:31:16.365Z,16.52
2018-12-31T11:32:16.354Z,16.59
2018-12-31T11:33:16.346Z,16.53
2018-12-31T11:34:16.341Z,16.50
2018-12-31T11:35:16.321Z,16.52
2018-12-31T11:36:16.321Z,16.56
2018-12-31T11:37:16.297Z,16.59
2018-12-31T11:38:16.289Z,16.56
2018-12-31T11:39:16.274Z,16.52
2018-12-31T11:40:16.273Z,16.50
2018-12-31T11:41:16.252Z,16.59
2018-12-31T11:42:16.240Z,16.62
2018-12-31T11:43:16.228Z,16.53
2018-12-31T11:44:16.230Z,16.59
2018-12-31T11:45:16.207Z,16.58
2018-12-31T11:46:16.204Z,16.53
2018-12-31T11:47:16.183Z,16.52
2018-12-31T11:48:16.173Z,16.52
2018-12-31T11:49:16.160Z,16.55
2018-12-31T11:50:16.148Z,16.52
2018-12-31T11:51:16.140Z,16.52
2018-12-31T11:52:16.134Z,16.52
2018-12-31T11:53:16.114Z,16.50
2018-12-31T11:54:16.104Z,16.52
2018-12-31T11:55:16.092Z,16.50
2018-12-31T11:56:16.080Z,16.55
2018-12-31T11:57:16.070Z,16.56
2018-12-31T11:58:16.331Z,16.52
2018-12-31T11:59:16.046Z,16.52
2018-12-31T12:00:16.038Z,16.55
2018-12-31T12:01:16.024Z,16.56
2018-12-31T12:02:23.347Z,16.56
2018-12-31T12:03:17.009Z,16.50
2018-12-31T12:04:15.991Z,16.55
2018-12-31T12:05:15.980Z,16.53
2018-12-31T12:06:15.967Z,16.56
2018-12-31T12:07:15.959Z,16.56
2018-12-31T12:08:15.946Z,16.59
2018-12-31T12:09:16.208Z,16.55
2018-12-31T12:10:15.923Z,16.52
2018-12-31T12:11:15.913Z,16.55
2018-12-31T12:12:15.901Z,16.56
2018-12-31T12:13:15.893Z,16.52
2018-12-31T12:14:15.878Z,16.50
2018-12-31T12:15:15.874Z,16.56
2018-12-31T12:16:15.854Z,16.50
2018-12-31T12:17:15.844Z,16.53
2018-12-31T12:18:15.832Z,16.58
2018-12-31T12:19:15.822Z,16.58
2018-12-31T12:20:15.809Z,16.59
2018-12-31T12:21:15.805Z,16.50
2018-12-31T12:22:15.789Z,16.56
2018-12-31T12:23:15.774Z,16.52
2018-12-31T12:24:15.765Z,16.58
2018-12-31T12:25:15.754Z,16.55
2018-12-31T12:26:15.741Z,16.59
2018-12-31T12:27:15.740Z,16.53
2018-12-31T12:28:15.718Z,16.53
2018-12-31T12:29:15.706Z,16.53
2018-12-31T12:30:15.695Z,16.55
2018-12-31T12:31:15.687Z,16.56
2018-12-31T12:32:15.677Z,16.59
2018-12-31T12:33:15.668Z,16.58
2018-12-31T12:34:15.650Z,16.53
2018-12-31T12:35:15.642Z,16.55
2018-12-31T12:36:15.629Z,16.55
2018-12-31T12:37:15.616Z,16.50
2018-12-31T12:38:15.605Z,16.60
2018-12-31T12:39:15.603Z,16.71
2018-12-31T12:40:15.584Z,16.59
2018-12-31T12:41:15.571Z,16.70
2018-12-31T12:42:15.560Z,16.60
2018-12-31T12:43:15.549Z,16.56
2018-12-31T12:44:15.536Z,16.58
2018-12-31T12:45:15.815Z,16.56
2018-12-31T12:46:15.516Z,16.58
2018-12-31T12:47:15.503Z,16.65
2018-12-31T12:48:15.493Z,16.70
2018-12-31T12:49:15.481Z,16.65
2018-12-31T12:50:15.469Z,16.52
2018-12-31T12:51:15.745Z,16.65
2018-12-31T12:52:15.447Z,16.58